Donceel, Belgium
Current Conditions -  °F | °C
As of 1:50 AM on Tuesday 27 Jan 2015 (Local Time) from EBLG Reporting Station
Broken Clouds Broken Clouds  
Wind Chill: 30°   Ceiling: 1900
Heat Index: 36°   Visibility: 6mi
Dew Point: 34°   Wind: 7mph
Humidity: 93%   Direction: 280°W
Pressure: 30.18"   Gusts: NA
Location:  50.65°N, 5.32°E
Report Text: EBLG 270050Z 28006KT 9999 BKN019 SCT041 02/01 Q1022 NOSIG
Loading
Personal Weather Stations






























Interactive Weather Map New forecast layout! Learn more

10-Day Weather Forecast

Advertisements
Track Severe Weather on mobile